• Join FlightAware (Why Join?)
  • Login
  • US Flag 
04:53AM EDT


 

Airport Tracker/Info


-or-


 

Live Flight TrackerFlight Track Log ✈ SWA17 ✈ 22-Jun-2013 ✈ KALB - KBWI

Flight Track Log - Related Links

Times and Time Zones

All times are in EDT time to prevent confusion due to time zone crossing. See the SWA17 flight status page for this flight to view local times or setup timezone preferences in your user account.

Time Position Orientation Groundspeed Altitude Reporting Facility
EDT Latitude Longitude Course Direction KTS MPH feet Rate Location/Type
06:15AM 42.7278 -73.8081 254° West 133 153 1,700  Level Boston Center
06:16AM 42.7167 -73.8614 254° West 231 266 4,000 2,460 Climbing Boston Center
06:17AM 42.7075 -73.9319 260° West 205 236 7,100 3,180 Climbing Boston Center
06:18AM 42.6347 -73.9133 169° South 155 178 10,400 3,120 Climbing Boston Center
06:19AM 42.5456 -73.8744 162° South 253 291 13,400 3,060 Climbing Boston Center
06:20AM 42.4564 -73.8442 166° South 346 398 16,600 3,000 Climbing Boston Center
06:21AM 42.3442 -73.8081 167° South 373 429 19,500 2,880 Climbing Boston Center
06:22AM 42.2364 -73.7692 165° South 392 451 22,400 2,100 Climbing Boston Center
06:23AM 42.1242 -73.7306 166° South 406 467 23,700 2,100 Climbing Boston Center
06:24AM 42.0183 -73.7031 169° South 426 490 26,600 2,100 Climbing Boston Center
06:25AM 41.9133 -73.7542 200° South 400 460 28,000 660 Climbing Boston Center
06:26AM 41.8147 -73.8133 204° Southwest 395 455 28,000  Level Boston Center
06:28AM 41.6531 -73.9028 202° Southwest 397 457 28,000  Level New York Center
06:29AM 41.5453 -73.9642 203° Southwest 397 457 28,000  Level New York Center
06:30AM 41.4439 -74.0231 204° Southwest 397 457 28,000  Level New York Center
06:31AM 41.3400 -74.0842 204° Southwest 399 459 28,000 -360 Level New York Center
06:32AM 41.2383 -74.1456 204° Southwest 405 466 27,300 -780 Descending New York Center
06:33AM 41.1619 -74.1911 204° Southwest 400 460 26,500 -660 Descending New York Center
06:34AM 41.0500 -74.2489 201° Southwest 400 460 26,000 -300 Descending New York Center
06:35AM 40.9525 -74.3069 204° Southwest 400 460 26,000  Level New York Center
06:36AM 40.8528 -74.3650 204° Southwest 400 460 26,000  Level New York Center
06:37AM 40.7650 -74.4425 214° Southwest 395 455 26,000 -600 Level New York Center
06:38AM 40.7053 -74.5542 235° Southwest 383 441 24,800 -1,020 Descending New York Center
06:39AM 40.6658 -74.6778 247° West 372 428 24,000 -1,200 Descending New York Center
06:40AM 40.6425 -74.8078 257° West 361 415 22,500 -1,020 Descending New York Center
06:41AM 40.6197 -74.9294 256° West 361 415 22,000 -300 Descending New York Center
06:42AM 40.5581 -75.0158 227° Southwest 330 380 22,000  Level New York Center
06:43AM 40.4583 -75.0125 179° South 296 341 22,000 -60 Level New York Center
06:44AM 40.3694 -75.0478 197° South 318 366 21,900 -600 Descending New York Center
06:45AM 40.3036 -75.1392 227° Southwest 331 381 20,900 -1,020 Descending New York Center
06:46AM 40.2397 -75.2303 227° Southwest 336 387 19,900 -960 Descending New York Center
06:47AM 40.1650 -75.3286 225° Southwest 349 402 19,000 -480 Descending New York Center
06:48AM 40.1100 -75.4064 227° Southwest 344 396 19,000  Level New York Center
06:49AM 40.0417 -75.5022 227° Southwest 339 390 19,000  Level New York Center
06:50AM 39.9842 -75.5797 226° Southwest 332 382 19,000  Level New York Center
06:51AM 39.9156 -75.6778 228° Southwest 332 382 19,000 -360 Level New York Center
06:52AM 39.8703 -75.7611 235° Southwest 338 389 18,300 -1,500 Descending New York Center
06:53AM 39.7667 -75.9500 235° Southwest 317 365 14,800 -1,740 Descending Potomac TRACON
06:55AM 39.7126 -76.0415 237° Southwest  Level FlightAware Approximate
06:55AM 39.6833 -76.1333 237° Southwest 304 350 11,700  Level Potomac TRACON
06:56AM 39.6333 -76.2167 232° Southwest 302 348 10,000 -1,680 Descending Potomac TRACON
06:57AM 39.5833 -76.3167 237° Southwest 290 334 8,200 -1,560 Descending Potomac TRACON
06:58AM 39.5500 -76.3833 237° Southwest 286 329 6,900 -1,380 Descending Potomac TRACON
06:59AM 39.5000 -76.4667 232° Southwest 276 318 5,600 -960 Descending Potomac TRACON
07:00AM 39.4500 -76.5500 232° Southwest 262 302 5,000 -480 Descending Potomac TRACON
07:01AM 39.4167 -76.6333 243° Southwest 265 305 4,700 -540 Descending Potomac TRACON
07:02AM 39.3833 -76.7000 237° Southwest 262 302 4,000 -360 Descending Potomac TRACON
07:03AM 39.3500 -76.7833 243° Southwest 244 281 4,000  Level Potomac TRACON
07:04AM 39.3167 -76.8500 237° Southwest 236 272 4,000 -540 Level Potomac TRACON
07:05AM 39.2833 -76.9000 229° Southwest 209 241 3,000 -840 Descending Potomac TRACON
07:06AM 39.2333 -76.9000 180° South 202 232 2,400 -540 Descending Potomac TRACON
07:07AM 39.1833 -76.8667 153° Southeast 172 198 2,000 -300 Descending Potomac TRACON
07:08AM 39.1833 -76.8167 90° East 174 200 1,900 -480 Descending Potomac TRACON
07:09AM 39.1833 -76.7500 90° East 149 171 1,200 -780 Descending Potomac TRACON
07:10AM 39.1833 -76.7000 90° East 137 158 400 -840 Descending Potomac TRACON
07:12AM 39.1754 -76.6683 218° Southwest  Level Estimated
07:19AM 39.1754 -76.6683 270° West  Level Estimated
07:20AM 39.1754 -76.6683 270° West  Level Estimated
07:21AM 39.1754 -76.6683 270° West  Level Estimated
07:22AM 39.1754 -76.6683 270° West  Level Estimated